Terminal Aerodrome Forecast
Issued by NWS

Home | Current Version | Previous Version | Text Only | Print | Product List | Glossary On
Versions: 1 2 3 4 5 6 7 8 9 10 11 12 13 14 15 16
384
FTUS45 KRIW 292324
TAFRKS
TAF
KRKS 292324Z 3000/3024 02007KT P6SM SCT050
     FM300600 VRB05KT P6SM SCT090
     FM301500 27015G25KT P6SM SCT060 BKN100
     FM301900 29025G35KT P6SM SCT060 BKN080=

USA.gov is the U.S. government's official web portal to all federal, state and local government web resources and services.